Time;durP1;ratioP1;P1;durP2;ratioP2;P2;SDS_P1;SDS_P2;PMS_P1;PMS_P2;Temp;Humidity;BMP_temperature;BMP_pressure;BME280_temperature;BME280_humidity;BME280_pressure;Samples;Min_cycle;Max_cycle;Signal;HPM_P1;HPM_P2
2022/08/12 00:44:46;;;;;;;5.43;2.70;;;24.20;99.90;;;;;;6303551;22;19999;-86
2022/08/12 00:47:13;;;;;;;7.82;2.78;;;24.20;99.90;;;;;;6303448;22;20249;-86
2022/08/12 00:49:39;;;;;;;10.70;3.00;;;24.20;99.90;;;;;;6303717;22;20510;-86
2022/08/12 00:52:06;;;;;;;8.45;2.50;;;24.30;99.90;;;;;;6302873;22;20006;-87
2022/08/12 00:54:38;;;;;;;5.07;2.50;;;24.40;99.90;;;;;;6303586;22;20003;-87
2022/08/12 00:57:08;;;;;;;5.00;2.53;;;24.30;99.90;;;;;;6303523;22;20066;-87
2022/08/12 00:59:35;;;;;;;9.77;3.10;;;24.30;99.90;;;;;;6303427;22;20442;-86
2022/08/12 01:02:03;;;;;;;10.35;2.80;;;24.20;99.90;;;;;;6276507;22;20090;-86
2022/08/12 01:12:47;;;;;;;7.45;2.45;;;24.30;99.90;;;;;;6303238;22;20046;-86
2022/08/12 01:15:13;;;;;;;5.47;2.50;;;24.10;99.90;;;;;;6303432;22;20320;-87
2022/08/12 01:17:43;;;;;;;7.05;2.70;;;24.00;99.90;;;;;;6303430;22;20004;-86
2022/08/12 01:20:18;;;;;;;4.57;2.63;;;24.10;99.90;;;;;;6303145;22;20014;-86
2022/08/12 01:22:58;;;;;;;5.60;2.67;;;24.10;99.90;;;;;;6303126;22;20000;-86
2022/08/12 01:25:28;;;;;;;10.30;3.00;;;24.10;99.90;;;;;;6277028;22;20137;-86
2022/08/12 01:27:57;;;;;;;7.25;3.10;;;24.00;99.90;;;;;;6304088;22;20025;-85
2022/08/12 01:30:25;;;;;;;9.65;2.90;;;23.90;99.90;;;;;;6304161;22;20439;-86
2022/08/12 01:32:54;;;;;;;8.02;2.80;;;23.90;99.90;;;;;;6304157;22;19995;-85
2022/08/12 01:35:22;;;;;;;3.38;2.63;;;23.80;99.90;;;;;;6276710;22;20006;-87
2022/08/12 01:37:56;;;;;;;3.28;2.70;;;23.90;99.90;;;;;;6302882;22;20038;-84
2022/08/12 01:40:32;;;;;;;5.20;2.63;;;23.90;99.90;;;;;;6304005;22;20015;-85
2022/08/12 01:43:06;;;;;;;13.35;2.97;;;23.80;99.90;;;;;;6303202;22;20049;-85
2022/08/12 01:45:33;;;;;;;3.17;2.50;;;23.80;99.90;;;;;;6303073;22;20006;-87
2022/08/12 01:48:32;;;;;;;12.15;3.00;;;23.80;99.90;;;;;;6302918;22;20030;-85
2022/08/12 01:51:25;;;;;;;7.35;2.90;;;23.90;99.90;;;;;;6303116;22;20125;-87
2022/08/12 01:53:57;;;;;;;7.95;2.70;;;23.90;99.90;;;;;;6303968;22;19996;-85
2022/08/12 01:56:25;;;;;;;6.78;2.78;;;23.90;99.90;;;;;;6276329;22;20003;-87
2022/08/12 02:01:41;;;;;;;13.63;2.70;;;23.80;99.90;;;;;;6302727;22;20022;-85
2022/08/12 02:13:09;;;;;;;4.22;2.45;;;23.80;99.90;;;;;;6302562;22;20141;-86
2022/08/12 02:15:35;;;;;;;5.22;2.63;;;23.70;99.90;;;;;;6302598;22;19995;-85
2022/08/12 02:18:11;;;;;;;7.47;2.90;;;23.80;99.90;;;;;;6302818;22;20010;-88
2022/08/12 02:20:46;;;;;;;5.68;2.83;;;23.70;99.90;;;;;;6302539;22;20451;-87
2022/08/12 02:23:13;;;;;;;8.20;2.85;;;23.70;99.90;;;;;;6302576;22;20003;-85
2022/08/12 02:25:43;;;;;;;11.23;2.90;;;23.70;99.90;;;;;;6302634;22;20074;-86
2022/08/12 02:28:10;;;;;;;7.90;3.00;;;23.70;99.90;;;;;;6275100;22;20006;-87
2022/08/12 02:30:37;;;;;;;3.90;2.90;;;23.60;99.90;;;;;;6303004;22;20003;-85
2022/08/12 02:33:04;;;;;;;9.85;3.00;;;23.50;99.90;;;;;;6308603;22;20450;-86
2022/08/12 02:35:33;;;;;;;7.68;3.15;;;23.50;99.90;;;;;;6308370;22;20003;-87
2022/08/12 02:38:05;;;;;;;5.00;2.75;;;23.50;99.90;;;;;;6311015;22;20074;-85
2022/08/12 02:40:35;;;;;;;10.60;3.10;;;23.60;99.90;;;;;;6305785;22;20435;-86
2022/08/12 02:43:29;;;;;;;6.85;2.78;;;23.50;99.90;;;;;;6302797;22;20003;-86
2022/08/12 02:46:05;;;;;;;4.63;2.60;;;23.50;99.90;;;;;;6303502;22;20003;-85
2022/08/12 02:49:05;;;;;;;8.60;2.60;;;23.50;99.90;;;;;;6302443;22;20014;-86
2022/08/12 02:51:37;;;;;;;8.93;3.00;;;23.40;99.90;;;;;;6302531;22;19995;-84
2022/08/12 02:54:05;;;;;;;6.65;3.00;;;23.50;99.90;;;;;;6302404;22;20078;-85
2022/08/12 02:56:31;;;;;;;5.65;2.70;;;23.50;99.90;;;;;;6302354;22;20097;-84
2022/08/12 02:58:59;;;;;;;4.65;2.67;;;23.40;99.90;;;;;;6303263;22;19999;-85
2022/08/12 03:01:32;;;;;;;8.70;2.63;;;23.40;99.90;;;;;;6303423;22;20038;-85
2022/08/12 03:04:06;;;;;;;4.38;2.60;;;23.40;99.90;;;;;;6303597;22;19999;-86
2022/08/12 03:06:50;;;;;;;5.57;2.78;;;23.40;99.90;;;;;;6302435;22;20493;-86
2022/08/12 03:09:17;;;;;;;5.38;2.72;;;23.40;99.90;;;;;;6302333;22;19995;-85
2022/08/12 03:11:52;;;;;;;5.85;2.70;;;23.40;99.90;;;;;;6274948;22;20048;-86
2022/08/12 03:14:24;;;;;;;5.60;2.90;;;23.40;99.90;;;;;;6302965;22;19999;-85
2022/08/12 03:17:26;;;;;;;4.50;2.85;;;23.40;99.90;;;;;;6304531;22;20309;-86
2022/08/12 03:19:53;;;;;;;6.90;2.80;;;23.40;99.90;;;;;;6257206;22;20022;-84
2022/08/12 03:22:22;;;;;;;8.20;2.95;;;23.40;99.90;;;;;;6277058;22;20328;-87
2022/08/12 03:24:49;;;;;;;5.22;2.70;;;23.40;99.90;;;;;;6304404;22;19996;-85
2022/08/12 03:27:15;;;;;;;6.40;2.70;;;23.40;99.90;;;;;;6304391;22;20007;-86
2022/08/12 03:29:48;;;;;;;6.78;2.70;;;23.40;99.90;;;;;;6304413;22;19996;-86
2022/08/12 03:32:14;;;;;;;7.90;2.90;;;23.40;99.90;;;;;;6276756;22;20014;-85
2022/08/12 03:34:41;;;;;;;4.78;2.33;;;23.40;99.90;;;;;;6303961;22;20402;-85
2022/08/12 03:37:09;;;;;;;4.35;2.85;;;23.30;99.90;;;;;;6304313;22;20070;-87
2022/08/12 03:42:11;;;;;;;7.13;3.10;;;23.30;99.90;;;;;;6304589;22;20035;-85
2022/08/12 04:01:24;;;;;;;13.13;2.75;;;23.30;99.90;;;;;;6303852;22;20270;-86
2022/08/12 04:03:51;;;;;;;8.57;2.70;;;23.30;99.90;;;;;;6303801;22;19999;-87
2022/08/12 04:06:20;;;;;;;7.72;2.92;;;23.30;99.90;;;;;;6304444;22;19999;-86
2022/08/12 04:08:51;;;;;;;8.52;2.90;;;23.20;99.90;;;;;;6276754;22;20419;-84
2022/08/12 04:14:10;;;;;;;5.95;2.60;;;23.20;99.90;;;;;;6304833;22;20010;-88
2022/08/12 04:16:37;;;;;;;4.22;2.60;;;23.10;99.90;;;;;;6304083;22;20011;-85
2022/08/12 04:19:05;;;;;;;6.03;2.70;;;23.10;99.90;;;;;;6304886;22;20445;-84
2022/08/12 04:21:35;;;;;;;6.47;2.92;;;23.10;99.90;;;;;;6277435;22;20023;-84
2022/08/12 04:24:01;;;;;;;5.95;2.92;;;23.10;99.90;;;;;;6305501;22;20000;-87
2022/08/12 04:26:28;;;;;;;7.22;2.80;;;23.00;99.90;;;;;;6303635;22;20507;-86
2022/08/12 04:28:58;;;;;;;5.85;2.90;;;23.00;99.90;;;;;;6303858;22;20488;-87
2022/08/12 04:31:40;;;;;;;5.50;2.63;;;22.90;99.90;;;;;;6303770;22;20049;-88
2022/08/12 04:34:08;;;;;;;6.07;2.83;;;22.90;99.90;;;;;;6303660;22;20048;-84
2022/08/12 04:36:36;;;;;;;9.27;2.80;;;22.90;99.90;;;;;;6304749;22;20442;-88
2022/08/12 04:39:03;;;;;;;7.18;2.92;;;22.90;99.90;;;;;;6304629;22;20003;-85
2022/08/12 04:41:30;;;;;;;5.85;2.83;;;23.00;99.90;;;;;;6303812;22;20082;-86
2022/08/12 04:43:55;;;;;;;10.15;2.83;;;22.90;99.90;;;;;;6276237;22;20015;-87
2022/08/12 04:46:23;;;;;;;8.05;2.72;;;22.90;99.90;;;;;;6303559;22;20003;-88
2022/08/12 04:48:49;;;;;;;6.38;2.75;;;22.90;99.90;;;;;;6303430;22;20007;-83
2022/08/12 04:51:15;;;;;;;6.80;3.47;;;22.90;99.90;;;;;;6303433;22;20435;-84
2022/08/12 04:53:42;;;;;;;5.70;2.75;;;22.90;99.90;;;;;;6275920;22;20006;-88
2022/08/12 04:56:09;;;;;;;4.80;2.67;;;22.80;99.90;;;;;;6303758;22;20080;-87
2022/08/12 04:58:37;;;;;;;4.63;2.90;;;22.80;99.90;;;;;;6304673;22;19996;-88
2022/08/12 05:01:03;;;;;;;5.68;2.83;;;22.70;99.90;;;;;;6304171;22;20017;-84
2022/08/12 05:03:30;;;;;;;7.28;3.03;;;22.70;99.90;;;;;;6295955;22;20060;-84
2022/08/12 05:05:56;;;;;;;16.30;3.03;;;22.70;99.90;;;;;;6301493;22;20650;-84
2022/08/12 05:08:23;;;;;;;12.35;3.70;;;22.70;99.90;;;;;;6301821;22;20103;-83
2022/08/12 05:10:49;;;;;;;10.52;2.85;;;22.60;99.90;;;;;;6302638;22;20003;-83
2022/08/12 05:13:37;;;;;;;10.23;2.78;;;22.50;99.90;;;;;;6302704;22;20000;-84
2022/08/12 05:16:07;;;;;;;4.32;2.83;;;22.60;99.90;;;;;;6303762;22;19999;-83
2022/08/12 05:18:37;;;;;;;5.53;2.90;;;22.60;99.90;;;;;;6303589;22;20014;-83
2022/08/12 05:21:07;;;;;;;7.20;2.70;;;22.60;99.90;;;;;;6305426;22;20033;-85
2022/08/12 05:23:36;;;;;;;8.55;2.67;;;22.50;99.90;;;;;;6304259;22;19999;-83
2022/08/12 05:26:03;;;;;;;5.22;2.88;;;22.30;99.90;;;;;;6295865;22;20078;-84
2022/08/12 05:28:29;;;;;;;6.32;2.80;;;22.50;99.90;;;;;;6300353;22;20067;-83
2022/08/12 05:30:57;;;;;;;6.03;2.83;;;22.50;99.90;;;;;;6301841;22;20035;-84
2022/08/12 05:33:25;;;;;;;6.15;2.65;;;22.50;99.90;;;;;;6302115;22;20060;-83
2022/08/12 05:35:51;;;;;;;4.82;2.92;;;22.60;99.90;;;;;;6302073;22;20032;-86
2022/08/12 05:41:05;;;;;;;8.30;2.83;;;22.60;99.90;;;;;;6303235;22;20021;-85
2022/08/12 05:43:33;;;;;;;5.95;2.85;;;22.50;99.90;;;;;;6302090;22;19996;-83
2022/08/12 05:45:58;;;;;;;6.47;2.67;;;22.60;99.90;;;;;;6302050;22;20056;-82
2022/08/12 05:48:25;;;;;;;7.50;2.80;;;22.60;99.90;;;;;;6301843;22;20003;-83
2022/08/12 05:50:51;;;;;;;4.50;3.00;;;22.70;99.90;;;;;;6302776;22;20019;-86
2022/08/12 05:53:17;;;;;;;5.00;2.50;;;22.70;99.90;;;;;;6302897;22;20003;-86
2022/08/12 05:55:43;;;;;;;5.07;2.65;;;22.70;99.90;;;;;;6302849;22;19999;-85
2022/08/12 05:58:09;;;;;;;7.13;2.60;;;22.70;99.90;;;;;;6302701;22;20062;-86
2022/08/12 06:00:35;;;;;;;5.65;3.10;;;22.70;99.90;;;;;;6303958;22;20013;-86
2022/08/12 06:03:03;;;;;;;4.40;2.60;;;22.80;99.90;;;;;;6302937;22;20003;-85
2022/08/12 06:05:34;;;;;;;10.13;2.85;;;22.90;99.90;;;;;;6302602;22;20308;-84
2022/08/12 06:08:01;;;;;;;5.80;2.80;;;22.90;99.90;;;;;;6302640;22;20003;-84
2022/08/12 06:10:27;;;;;;;7.35;2.78;;;22.90;99.90;;;;;;6275913;22;20086;-92
2022/08/12 06:12:56;;;;;;;5.00;2.60;;;23.00;99.90;;;;;;6303006;22;20434;-83
2022/08/12 06:15:21;;;;;;;6.72;2.60;;;23.00;99.90;;;;;;6275634;22;20395;-89
2022/08/12 06:17:47;;;;;;;5.95;2.55;;;23.00;99.90;;;;;;6303468;22;20415;-89
2022/08/12 06:20:14;;;;;;;5.15;2.70;;;23.10;99.90;;;;;;6275732;22;20011;-89
2022/08/12 06:22:44;;;;;;;5.38;2.78;;;23.10;99.90;;;;;;6302972;22;19999;-90
2022/08/12 06:25:17;;;;;;;5.90;2.70;;;23.10;99.90;;;;;;6302480;22;20008;-86
2022/08/12 06:27:47;;;;;;;7.32;2.67;;;23.10;99.90;;;;;;6302864;22;20003;-85
2022/08/12 06:30:18;;;;;;;8.68;2.65;;;23.10;99.90;;;;;;6302814;22;20031;-89
2022/08/12 06:32:46;;;;;;;4.72;2.70;;;23.20;99.90;;;;;;6275651;22;20000;-87
2022/08/12 06:35:13;;;;;;;6.50;2.70;;;23.30;99.90;;;;;;6275401;22;20335;-87
2022/08/12 06:37:40;;;;;;;5.05;2.40;;;23.40;99.90;;;;;;6276096;22;20003;-88
2022/08/12 06:40:09;;;;;;;6.53;2.47;;;23.50;99.90;;;;;;6303113;22;20003;-89
2022/08/12 06:42:47;;;;;;;5.30;2.53;;;24.00;99.90;;;;;;6303475;22;20389;-87
2022/08/12 06:45:14;;;;;;;6.20;2.42;;;23.50;99.90;;;;;;6302617;22;20052;-89
2022/08/12 06:47:40;;;;;;;9.23;3.35;;;23.60;99.90;;;;;;6303074;22;20014;-83
2022/08/12 06:50:07;;;;;;;6.55;2.90;;;23.60;99.90;;;;;;6303064;22;20004;-86
2022/08/12 06:52:33;;;;;;;5.63;2.60;;;23.60;99.90;;;;;;6302177;22;20003;-85
2022/08/12 06:54:59;;;;;;;9.95;2.65;;;23.60;99.90;;;;;;6302398;22;20343;-85
2022/08/12 06:57:26;;;;;;;2.67;2.25;;;23.70;99.90;;;;;;6302470;22;20002;-85
2022/08/12 06:59:52;;;;;;;5.70;2.70;;;23.70;99.90;;;;;;6302579;22;20031;-85
2022/08/12 07:02:19;;;;;;;9.27;2.80;;;23.80;99.90;;;;;;6302231;22;19999;-84
2022/08/12 07:04:46;;;;;;;9.15;2.33;;;23.90;99.90;;;;;;6301924;22;20074;-89
2022/08/12 07:07:12;;;;;;;8.98;3.08;;;23.90;99.90;;;;;;6302168;22;20084;-84
2022/08/12 07:09:41;;;;;;;7.60;2.80;;;24.00;99.90;;;;;;6275942;22;20003;-87
2022/08/12 07:12:18;;;;;;;7.32;2.50;;;24.10;99.90;;;;;;6303744;22;20000;-92
2022/08/12 07:14:50;;;;;;;7.07;2.60;;;24.10;99.90;;;;;;6302954;22;19995;-93
2022/08/12 07:17:15;;;;;;;5.72;2.65;;;24.20;99.90;;;;;;6275569;22;20010;-89
2022/08/12 07:19:43;;;;;;;8.80;2.55;;;24.30;99.90;;;;;;6303299;22;19996;-86
2022/08/12 07:22:09;;;;;;;5.15;2.50;;;24.30;99.90;;;;;;6304518;22;20045;-93
2022/08/12 07:24:35;;;;;;;5.13;2.33;;;24.40;99.90;;;;;;6303645;22;20030;-83
2022/08/12 07:27:00;;;;;;;6.47;2.55;;;24.40;99.90;;;;;;6302731;22;20007;-86
2022/08/12 07:29:27;;;;;;;10.27;2.67;;;24.50;99.90;;;;;;6302055;22;20022;-87
2022/08/12 07:31:53;;;;;;;6.25;2.60;;;24.50;99.90;;;;;;6302108;22;20003;-84
2022/08/12 07:34:19;;;;;;;4.85;2.60;;;24.60;99.90;;;;;;6305009;22;20084;-82
2022/08/12 07:36:47;;;;;;;10.10;2.50;;;24.70;99.90;;;;;;6304723;22;19999;-88
2022/08/12 07:39:13;;;;;;;9.13;2.67;;;24.70;99.90;;;;;;6302305;22;20007;-83
2022/08/12 07:41:39;;;;;;;8.63;2.72;;;24.80;99.90;;;;;;6302813;22;20340;-83
2022/08/12 07:44:07;;;;;;;7.13;2.67;;;24.90;99.90;;;;;;6301804;22;20117;-83
2022/08/12 07:46:41;;;;;;;6.47;2.40;;;25.00;99.90;;;;;;6301879;22;20229;-83
2022/08/12 07:49:13;;;;;;;6.57;2.70;;;25.10;99.90;;;;;;6302046;22;20003;-86
2022/08/12 07:51:40;;;;;;;6.43;2.72;;;25.20;99.90;;;;;;6303266;22;20003;-83
2022/08/12 07:54:08;;;;;;;;;;;25.30;99.90;;;;;;6302491;22;19995;-83
2022/08/12 07:56:35;;;;;;;3.28;2.30;;;25.40;99.90;;;;;;6301907;22;19907;-83
2022/08/12 07:59:01;;;;;;;6.55;2.75;;;25.50;99.90;;;;;;6274572;22;20423;-83
2022/08/12 08:01:28;;;;;;;15.00;2.50;;;25.60;99.90;;;;;;6303340;22;20011;-83
2022/08/12 08:06:42;;;;;;;6.65;2.33;;;25.80;99.90;;;;;;6304801;22;20095;-83
2022/08/12 08:09:12;;;;;;;4.75;2.45;;;26.00;99.90;;;;;;6278423;22;20007;-82
2022/08/12 08:14:27;;;;;;;13.32;2.75;;;26.20;99.90;;;;;;6320658;22;20014;-87
2022/08/12 08:16:52;;;;;;;14.93;2.60;;;26.30;99.90;;;;;;6306827;22;20320;-86
2022/08/12 08:19:22;;;;;;;9.00;2.80;;;26.40;99.90;;;;;;6304396;22;20090;-90
2022/08/12 08:21:49;;;;;;;3.10;2.63;;;26.60;99.90;;;;;;6303942;22;20056;-88
2022/08/12 08:24:15;;;;;;;6.80;2.63;;;26.60;99.90;;;;;;6304914;22;19999;-89
2022/08/12 08:26:47;;;;;;;7.32;2.75;;;26.80;99.90;;;;;;6305326;22;20010;-88
2022/08/12 08:29:15;;;;;;;11.13;2.50;;;27.00;99.90;;;;;;6305199;22;20038;-88
2022/08/12 08:31:44;;;;;;;8.55;2.30;;;27.10;99.90;;;;;;6305323;22;20079;-90
2022/08/12 08:34:11;;;;;;;7.05;2.70;;;27.20;99.90;;;;;;6303963;22;20458;-87
2022/08/12 08:36:38;;;;;;;6.57;2.80;;;27.40;99.90;;;;;;6304156;22;20450;-87
2022/08/12 08:39:04;;;;;;;10.05;2.60;;;27.40;99.90;;;;;;6303936;22;20218;-84
2022/08/12 08:44:15;;;;;;;11.23;3.30;;;27.50;99.90;;;;;;6304948;22;20343;-91
2022/08/12 08:46:43;;;;;;;8.98;2.70;;;27.60;99.90;;;;;;6304714;22;20007;-86
2022/08/12 08:49:09;;;;;;;8.95;2.28;;;27.60;99.90;;;;;;6303711;22;20090;-84
2022/08/12 08:51:36;;;;;;;8.27;2.38;;;27.70;99.90;;;;;;6303741;22;20002;-84
2022/08/12 08:54:01;;;;;;;6.32;2.53;;;27.80;99.90;;;;;;6303616;22;20061;-84
2022/08/12 08:56:30;;;;;;;4.88;2.38;;;27.90;99.90;;;;;;6303819;22;19999;-85
2022/08/12 08:58:56;;;;;;;16.83;2.67;;;28.00;99.90;;;;;;6303693;22;20003;-87
2022/08/12 09:01:22;;;;;;;10.43;2.30;;;28.10;99.90;;;;;;6275985;22;20011;-87
2022/08/12 09:03:48;;;;;;;6.00;2.40;;;28.20;99.90;;;;;;6303317;22;20332;-84
2022/08/12 09:06:14;;;;;;;9.63;2.60;;;28.30;99.90;;;;;;6277093;22;20446;-84
2022/08/12 09:08:41;;;;;;;7.03;2.67;;;28.40;99.90;;;;;;6303761;22;20007;-84
2022/08/12 09:13:51;;;;;;;7.60;2.35;;;28.40;99.90;;;;;;6302785;22;20083;-90
2022/08/12 09:16:18;;;;;;;14.35;2.40;;;28.50;99.90;;;;;;6304269;22;20027;-88
2022/08/12 09:18:44;;;;;;;5.00;2.10;;;28.70;99.90;;;;;;6304677;22;20005;-88
2022/08/12 09:21:10;;;;;;;7.85;2.50;;;28.80;99.90;;;;;;6303216;22;20038;-90
2022/08/12 09:23:36;;;;;;;8.15;2.40;;;28.90;99.90;;;;;;6303496;22;20006;-87
2022/08/12 09:26:02;;;;;;;7.65;2.53;;;28.80;99.90;;;;;;6303230;22;20003;-87
2022/08/12 09:28:28;;;;;;;3.78;2.28;;;28.80;99.90;;;;;;6303192;22;20443;-88
2022/08/12 09:30:58;;;;;;;5.78;2.53;;;29.00;99.90;;;;;;6303132;22;20074;-89
2022/08/12 09:33:29;;;;;;;5.95;2.13;;;28.90;99.90;;;;;;6276297;22;20000;-90
2022/08/12 09:35:56;;;;;;;3.55;2.17;;;28.80;99.90;;;;;;6303246;22;19999;-85
2022/08/12 09:38:22;;;;;;;4.43;2.83;;;29.00;99.90;;;;;;6303184;22;20046;-85
2022/08/12 09:40:48;;;;;;;9.80;2.10;;;29.20;99.90;;;;;;6304070;22;20011;-89
2022/08/12 09:46:02;;;;;;;5.97;2.30;;;29.50;99.90;;;;;;6302925;22;20014;-85
2022/08/12 09:48:28;;;;;;;6.50;2.40;;;29.50;99.90;;;;;;6302827;22;20324;-84
2022/08/12 09:50:54;;;;;;;5.88;2.33;;;29.60;99.90;;;;;;6302989;22;20437;-85
2022/08/12 09:53:23;;;;;;;6.95;2.35;;;29.70;99.90;;;;;;6302846;22;19999;-84
2022/08/12 09:55:54;;;;;;;7.43;2.17;;;29.70;99.90;;;;;;6303936;22;19995;-88
2022/08/12 09:58:28;;;;;;;13.95;2.28;;;29.90;99.90;;;;;;6303227;22;20010;-85
2022/08/12 10:01:03;;;;;;;5.70;2.20;;;30.00;99.90;;;;;;6303073;22;20046;-85
2022/08/12 10:03:31;;;;;;;5.03;2.08;;;30.10;99.90;;;;;;6302798;22;19995;-85
2022/08/12 10:05:58;;;;;;;;;;;30.30;99.90;;;;;;6275940;22;20104;-85
2022/08/12 10:08:26;;;;;;;4.47;2.10;;;30.30;99.90;;;;;;6302647;22;19903;-86
2022/08/12 10:13:40;;;;;;;8.98;2.50;;;30.30;99.90;;;;;;6302573;22;20022;-89
2022/08/12 10:16:17;;;;;;;4.70;2.20;;;30.00;99.90;;;;;;6303130;22;20078;-90
2022/08/12 10:18:54;;;;;;;18.42;3.35;;;30.10;99.90;;;;;;6302561;22;20003;-87
2022/08/12 10:21:25;;;;;;;6.53;2.30;;;30.10;99.90;;;;;;6303426;22;20011;-85
2022/08/12 10:23:52;;;;;;;5.00;2.28;;;30.20;99.90;;;;;;6303599;22;20070;-86
2022/08/12 10:31:50;;;;;;;3.35;2.20;;;30.30;99.90;;;;;;6303629;22;20010;-85
2022/08/12 10:34:17;;;;;;;2.85;2.50;;;30.50;99.90;;;;;;6303167;22;19999;-85
2022/08/12 10:36:43;;;;;;;7.68;2.38;;;30.40;99.90;;;;;;6302626;22;20007;-85
2022/08/12 10:39:15;;;;;;;5.20;2.15;;;30.70;99.90;;;;;;6302504;22;20074;-85
2022/08/12 10:44:27;;;;;;;6.45;2.50;;;30.70;99.90;;;;;;6302397;22;20010;-85
2022/08/12 10:46:54;;;;;;;4.82;2.25;;;30.40;99.90;;;;;;6302581;22;20007;-85
2022/08/12 10:49:24;;;;;;;10.70;2.13;;;30.70;99.90;;;;;;6303632;22;20008;-88
2022/08/12 10:51:50;;;;;;;4.40;2.28;;;30.70;99.90;;;;;;6303819;22;20066;-86
2022/08/12 10:54:18;;;;;;;5.30;2.38;;;30.90;99.90;;;;;;6304276;22;20003;-87
2022/08/12 10:56:48;;;;;;;7.47;2.33;;;31.10;99.90;;;;;;6305790;22;20129;-85
2022/08/12 10:59:20;;;;;;;5.00;2.20;;;30.90;99.90;;;;;;6304420;22;20060;-85
2022/08/12 11:01:50;;;;;;;6.15;2.50;;;30.80;99.90;;;;;;6275507;22;20389;-83
2022/08/12 11:04:16;;;;;;;4.30;2.40;;;31.00;99.90;;;;;;6301939;22;20019;-86
2022/08/12 11:06:52;;;;;;;3.67;2.17;;;30.90;99.90;;;;;;6302069;22;20052;-84
2022/08/12 11:09:26;;;;;;;6.22;2.15;;;30.70;99.90;;;;;;6302835;22;20386;-84
2022/08/12 11:11:52;;;;;;;4.93;2.40;;;30.90;99.90;;;;;;6303278;22;20003;-84
2022/08/12 11:14:27;;;;;;;6.00;2.20;;;31.00;99.90;;;;;;6301994;22;20046;-84
2022/08/12 11:16:56;;;;;;;4.82;2.30;;;31.00;99.90;;;;;;6302903;22;20004;-85
2022/08/12 11:19:24;;;;;;;6.97;2.13;;;31.20;99.90;;;;;;6303251;22;19999;-85
2022/08/12 11:21:51;;;;;;;7.47;2.30;;;31.40;99.90;;;;;;6303217;22;20011;-85
2022/08/12 11:24:17;;;;;;;9.07;2.50;;;31.50;99.90;;;;;;6302094;22;20048;-85
2022/08/12 11:26:43;;;;;;;3.05;2.28;;;31.30;99.90;;;;;;6302087;22;20052;-84
2022/08/12 11:29:09;;;;;;;7.57;2.50;;;31.20;99.90;;;;;;6301895;22;19999;-84
2022/08/12 11:31:35;;;;;;;4.93;2.10;;;31.10;99.90;;;;;;6301851;22;19999;-84
2022/08/12 11:34:00;;;;;;;9.30;2.30;;;31.20;99.90;;;;;;6302310;22;20006;-84
2022/08/12 11:36:26;;;;;;;7.72;2.35;;;30.90;99.90;;;;;;6303054;22;20000;-86
2022/08/12 11:38:53;;;;;;;3.15;2.20;;;31.20;99.90;;;;;;6305206;22;20343;-84
2022/08/12 11:41:18;;;;;;;7.40;2.72;;;31.30;99.90;;;;;;6276561;22;20328;-84
2022/08/12 11:43:44;;;;;;;7.57;2.33;;;31.40;99.90;;;;;;6304053;22;20469;-84
2022/08/12 11:46:10;;;;;;;7.07;2.60;;;31.40;99.90;;;;;;6303901;22;20060;-86
2022/08/12 11:48:39;;;;;;;8.30;2.35;;;31.60;99.90;;;;;;6303930;22;20086;-85
2022/08/12 11:51:08;;;;;;;4.38;2.40;;;31.40;99.90;;;;;;6276789;22;20007;-84
2022/08/12 11:53:35;;;;;;;5.95;2.38;;;31.30;99.90;;;;;;6304048;22;19999;-84
2022/08/12 11:56:04;;;;;;;6.10;2.20;;;31.40;99.90;;;;;;6303890;22;20420;-85
2022/08/12 11:58:30;;;;;;;7.78;2.25;;;31.60;99.90;;;;;;6303824;22;20069;-84
2022/08/12 12:00:55;;;;;;;9.10;2.40;;;31.60;99.90;;;;;;6304678;22;20423;-86
2022/08/12 12:03:21;;;;;;;4.50;2.35;;;31.70;99.90;;;;;;6276852;22;20374;-85
2022/08/12 12:05:47;;;;;;;5.35;2.38;;;31.70;99.90;;;;;;6303825;22;19999;-86
2022/08/12 12:08:23;;;;;;;6.13;2.50;;;31.60;99.90;;;;;;6303871;22;20004;-86
2022/08/12 12:10:50;;;;;;;8.10;2.20;;;31.60;99.90;;;;;;6303640;22;20453;-85
2022/08/12 12:13:17;;;;;;;7.75;2.25;;;31.60;99.90;;;;;;6303769;22;20022;-86
2022/08/12 12:15:43;;;;;;;5.32;2.10;;;31.60;99.90;;;;;;6304006;22;20066;-86
2022/08/12 12:18:23;;;;;;;6.22;2.35;;;31.60;99.90;;;;;;6303427;22;20462;-88
2022/08/12 12:20:50;;;;;;;6.07;2.28;;;31.70;99.90;;;;;;6303649;22;20083;-86
2022/08/12 12:23:16;;;;;;;6.32;2.35;;;31.60;99.90;;;;;;6303470;22;20083;-87
2022/08/12 12:25:42;;;;;;;5.07;2.00;;;31.60;99.90;;;;;;6303335;22;20007;-86
2022/08/12 12:28:07;;;;;;;5.85;2.17;;;31.60;99.90;;;;;;6303467;22;20313;-87
2022/08/12 12:30:34;;;;;;;8.50;2.42;;;31.60;99.90;;;;;;6303377;22;20453;-87
2022/08/12 12:33:00;;;;;;;5.27;2.20;;;31.70;99.90;;;;;;6303433;22;20362;-85
2022/08/12 12:35:25;;;;;;;5.60;2.20;;;31.70;99.90;;;;;;6304275;22;20002;-86
2022/08/12 12:38:02;;;;;;;8.27;2.47;;;31.60;99.90;;;;;;6275686;22;20007;-86
2022/08/12 12:40:30;;;;;;;5.10;2.22;;;31.60;99.90;;;;;;6276295;22;20014;-85
2022/08/12 12:42:56;;;;;;;6.43;2.13;;;31.70;99.90;;;;;;6304335;22;19999;-85
2022/08/12 12:45:23;;;;;;;5.13;2.15;;;31.70;99.90;;;;;;6303315;22;19995;-86
2022/08/12 12:48:02;;;;;;;8.93;2.45;;;31.70;99.90;;;;;;6302355;22;20215;-85
2022/08/12 12:50:36;;;;;;;3.13;2.22;;;31.70;99.90;;;;;;6304304;22;20074;-86
2022/08/12 12:53:03;;;;;;;9.63;2.25;;;31.90;99.90;;;;;;6302913;22;20010;-85
2022/08/12 12:55:34;;;;;;;4.45;2.25;;;32.00;99.90;;;;;;6303403;22;20003;-86
2022/08/12 12:58:03;;;;;;;5.68;2.28;;;32.00;99.90;;;;;;6303238;22;20018;-87
2022/08/12 13:00:31;;;;;;;4.35;2.10;;;32.00;99.90;;;;;;6304063;22;20018;-86
2022/08/12 13:02:59;;;;;;;7.68;2.22;;;32.00;99.90;;;;;;6303777;22;20098;-86
2022/08/12 13:05:35;;;;;;;6.95;2.20;;;32.00;99.90;;;;;;6303826;22;20060;-86
2022/08/12 13:08:17;;;;;;;7.35;2.35;;;32.20;99.90;;;;;;6303081;22;20004;-86
2022/08/12 13:10:42;;;;;;;2.75;2.00;;;32.00;99.90;;;;;;6303146;22;20007;-87
2022/08/12 13:13:08;;;;;;;5.72;2.38;;;32.00;99.90;;;;;;6302796;22;20031;-87
2022/08/12 13:15:36;;;;;;;10.57;2.30;;;31.90;99.90;;;;;;6303014;22;20003;-87
2022/08/12 13:18:06;;;;;;;4.68;2.38;;;32.00;99.90;;;;;;6302676;22;20376;-86
2022/08/12 13:20:31;;;;;;;8.18;2.38;;;32.00;99.90;;;;;;6302930;22;20083;-86
2022/08/12 13:22:57;;;;;;;4.55;2.17;;;32.10;99.90;;;;;;6303627;22;20384;-86
2022/08/12 13:25:23;;;;;;;4.75;2.33;;;32.10;99.90;;;;;;6275567;22;20008;-86
2022/08/12 13:27:49;;;;;;;8.32;2.20;;;32.10;99.90;;;;;;6302611;22;20026;-84
2022/08/12 13:30:17;;;;;;;5.95;2.20;;;32.10;99.90;;;;;;6302566;22;20083;-84
2022/08/12 13:32:49;;;;;;;4.50;2.25;;;32.20;99.90;;;;;;6302890;22;20002;-85
2022/08/12 13:35:15;;;;;;;8.32;2.40;;;32.10;99.90;;;;;;6302513;22;19999;-85
2022/08/12 13:37:52;;;;;;;8.27;2.73;;;32.20;99.90;;;;;;6302438;22;19999;-85
2022/08/12 13:40:25;;;;;;;7.18;2.55;;;32.30;99.90;;;;;;6302506;22;20010;-84
2022/08/12 13:42:56;;;;;;;7.82;2.28;;;32.20;99.90;;;;;;6302701;22;20362;-84
2022/08/12 13:45:23;;;;;;;5.05;2.20;;;32.10;99.90;;;;;;6306863;22;20330;-82
2022/08/12 13:47:56;;;;;;;6.72;2.47;;;32.00;99.90;;;;;;6306779;22;20010;-84
2022/08/12 13:50:31;;;;;;;5.13;2.30;;;32.00;99.90;;;;;;6309810;22;20442;-86
2022/08/12 13:53:01;;;;;;;3.88;2.20;;;32.10;99.90;;;;;;6303990;22;20347;-85
2022/08/12 13:55:28;;;;;;;6.60;2.40;;;32.10;99.90;;;;;;6303906;22;20074;-86
2022/08/12 13:57:55;;;;;;;2.93;2.00;;;32.20;99.90;;;;;;6302897;22;20011;-84
2022/08/12 14:00:22;;;;;;;10.35;2.40;;;32.30;99.90;;;;;;6302581;22;20009;-86
2022/08/12 14:02:48;;;;;;;6.97;2.20;;;32.20;99.90;;;;;;6302417;22;20010;-83
2022/08/12 14:05:16;;;;;;;9.23;2.30;;;32.10;99.90;;;;;;6302216;22;20004;-83
2022/08/12 14:08:00;;;;;;;8.38;2.20;;;32.10;99.90;;;;;;6302373;22;20057;-87
2022/08/12 14:10:35;;;;;;;5.30;2.38;;;32.10;99.90;;;;;;6302977;22;20496;-87
2022/08/12 14:13:23;;;;;;;11.43;2.30;;;32.20;99.90;;;;;;6303693;22;19995;-85
2022/08/12 14:15:57;;;;;;;4.88;2.15;;;32.20;99.90;;;;;;6302387;22;20423;-86
2022/08/12 14:18:25;;;;;;;3.78;2.08;;;32.30;99.90;;;;;;6302338;22;20249;-85
2022/08/12 14:20:57;;;;;;;4.95;2.35;;;32.30;99.90;;;;;;6302337;22;20014;-84
2022/08/12 14:23:24;;;;;;;10.82;2.33;;;32.30;99.90;;;;;;6302353;22;20587;-86
2022/08/12 14:25:50;;;;;;;;;;;32.30;99.90;;;;;;6302738;22;20003;-86
2022/08/12 14:28:17;;;;;;;3.30;2.37;;;32.40;99.90;;;;;;6300479;22;19944;-86
2022/08/12 14:30:52;;;;;;;7.78;2.13;;;32.50;99.90;;;;;;6302132;22;19999;-86
2022/08/12 14:33:48;;;;;;;4.72;2.35;;;32.40;99.90;;;;;;6303068;22;20021;-84
2022/08/12 14:36:19;;;;;;;7.32;2.40;;;32.40;99.90;;;;;;6299931;22;20003;-84
2022/08/12 14:38:45;;;;;;;7.93;2.20;;;32.40;99.90;;;;;;6301840;22;20347;-85
2022/08/12 14:41:25;;;;;;;2.70;1.90;;;32.40;99.90;;;;;;6301793;22;20068;-84
2022/08/12 14:43:51;;;;;;;5.95;2.22;;;32.40;99.90;;;;;;6302250;22;20004;-84
2022/08/12 14:46:19;;;;;;;8.02;2.30;;;32.40;99.90;;;;;;6268120;22;20345;-84
2022/08/12 14:48:48;;;;;;;4.18;1.90;;;32.40;99.90;;;;;;6301114;22;20011;-84